Time;durP1;ratioP1;P1;durP2;ratioP2;P2;SDS_P1;SDS_P2;PMS_P1;PMS_P2;Temp;Humidity;BMP_temperature;BMP_pressure;BME280_temperature;BME280_humidity;BME280_pressure;Samples;Min_cycle;Max_cycle;Signal;HPM_P1;HPM_P2
2022/06/05 13:02:28;;;;;;;32.95;14.88;;;;;;;32.22;100.00;94486.22;6205847;23;20043;-85
2022/06/05 13:05:21;;;;;;;37.95;15.07;;;;;;;31.63;100.00;94471.72;6202484;23;20016;-86
2022/06/05 13:07:55;;;;;;;28.52;13.93;;;;;;;31.45;98.54;94467.25;6191873;23;20009;-87
2022/06/05 13:10:39;;;;;;;27.55;9.98;;;;;;;32.16;74.76;94458.81;6217247;23;20001;-86
2022/06/05 13:13:38;;;;;;;27.75;9.95;;;;;;;31.48;75.08;94454.09;6216007;23;19997;-89
2022/06/05 13:16:11;;;;;;;29.48;9.10;;;;;;;30.46;62.84;94449.34;6216549;23;20405;-88
2022/06/05 13:18:58;;;;;;;30.48;7.00;;;;;;;31.15;69.57;94438.88;6192023;23;20127;-88
2022/06/05 13:21:32;;;;;;;26.85;7.32;;;;;;;31.69;62.46;94445.00;6217018;23;20000;-89
2022/06/05 13:24:30;;;;;;;27.60;6.78;;;;;;;31.11;63.90;94432.72;6216529;23;20047;-87
2022/06/05 13:27:04;;;;;;;37.58;7.57;;;;;;;29.23;79.17;94433.44;6217459;23;19996;-85
2022/06/05 13:29:55;;;;;;;37.05;7.60;;;;;;;29.71;74.66;94435.72;6216920;23;20012;-85
2022/06/05 13:32:30;;;;;;;36.45;7.43;;;;;;;30.60;68.72;94430.34;6216012;23;20423;-86
2022/06/05 13:35:00;;;;;;;37.53;7.50;;;;;;;30.08;70.23;94414.00;6189907;23;20425;-86
2022/06/05 13:37:39;;;;;;;26.48;7.68;;;;;;;31.68;63.99;94414.41;6216374;23;20043;-85
2022/06/05 13:40:18;;;;;;;32.65;8.13;;;;;;;32.91;59.42;94409.41;6216335;23;20299;-89
2022/06/05 13:43:02;;;;;;;29.95;8.18;;;;;;;33.61;57.99;94401.69;6191924;23;20000;-91
2022/06/05 13:45:27;;;;;;;31.83;7.32;;;;;;;33.55;55.61;94408.78;6194118;23;20091;-89
2022/06/05 13:48:07;;;;;;;36.88;6.53;;;;;;;33.62;51.58;94388.88;6217097;23;20412;-89
2022/06/05 13:51:04;;;;;;;39.72;6.15;;;;;;;32.44;54.47;94383.00;6216892;23;19996;-89
2022/06/05 13:53:57;;;;;;;31.40;5.68;;;;;;;33.25;51.18;94383.28;6216505;23;20429;-90
2022/06/05 13:57:09;;;;;;;34.70;5.43;;;;;;;32.04;57.93;94366.47;6191947;23;20004;-89
2022/06/05 13:59:56;;;;;;;24.30;5.63;;;;;;;32.86;51.93;94358.31;6211902;23;20433;-92
2022/06/05 14:02:38;;;;;;;31.13;6.35;;;;;;;32.84;53.40;94358.72;6192252;23;20091;-90
2022/06/05 14:05:12;;;;;;;46.40;5.72;;;;;;;31.86;50.75;94362.78;6191452;23;20031;-91
2022/06/05 14:08:08;;;;;;;34.03;5.28;;;;;;;30.61;56.67;94350.00;6216873;23;20321;-90
2022/06/05 14:10:54;;;;;;;26.40;4.05;;;;;;;30.04;52.91;94360.00;6158056;23;20373;-89
2022/06/05 14:13:21;;;;;;;39.13;4.20;;;;;;;30.31;49.74;94343.25;6191810;23;20421;-88
2022/06/05 14:16:00;;;;;;;27.52;4.10;;;;;;;30.67;48.41;94348.44;6192774;23;20024;-88
2022/06/05 14:18:39;;;;;;;27.33;4.38;;;;;;;30.82;49.79;94326.69;6192291;23;20310;-90
2022/06/05 14:21:14;;;;;;;30.35;3.97;;;;;;;30.42;45.50;94337.81;6216488;23;20299;-89
2022/06/05 14:23:50;;;;;;;31.02;3.83;;;;;;;31.17;47.95;94339.13;6216568;23;20001;-89
2022/06/05 14:26:33;;;;;;;22.65;3.80;;;;;;;30.14;44.98;94318.66;6217091;23;20027;-89
2022/06/05 14:28:59;;;;;;;24.88;3.95;;;;;;;31.10;45.01;94333.03;6192111;23;20071;-88
2022/06/05 14:31:24;;;;;;;20.65;4.00;;;;;;;31.70;42.86;94303.75;6192206;23;19997;-88
2022/06/05 14:34:05;;;;;;;29.25;4.78;;;;;;;33.99;39.76;94305.50;6190710;23;20027;-89
2022/06/05 14:36:37;;;;;;;27.40;4.28;;;;;;;33.48;39.06;94294.88;6192019;23;20023;-87
2022/06/05 14:39:11;;;;;;;26.92;3.55;;;;;;;33.75;37.89;94294.69;6217323;23;20019;-86
2022/06/05 14:41:49;;;;;;;22.00;3.70;;;;;;;35.49;37.54;94276.97;6217660;23;20000;-87
2022/06/05 14:44:20;;;;;;;25.27;3.85;;;;;;;36.10;35.04;94275.69;6216397;23;19997;-88
2022/06/05 14:47:37;;;;;;;23.70;3.85;;;;;;;35.79;34.17;94272.25;6191006;23;20271;-89
2022/06/05 14:50:58;;;;;;;27.67;4.38;;;;;;;33.98;36.92;94257.78;6215272;23;20087;-88
2022/06/05 14:54:02;;;;;;;18.75;3.20;;;;;;;32.94;38.85;94270.25;6154612;23;20002;-87
2022/06/05 14:59:25;;;;;;;20.50;4.25;;;;;;;29.59;44.82;94258.75;6216471;23;20376;-89
2022/06/05 15:02:23;;;;;;;27.05;3.95;;;;;;;29.71;45.52;94254.84;6215240;23;20019;-89
2022/06/05 15:05:04;;;;;;;24.75;3.97;;;;;;;29.83;54.97;94272.50;6207221;23;20016;-87
2022/06/05 15:07:33;;;;;;;21.58;3.80;;;;;;;28.80;58.05;94265.09;6215530;23;20132;-87
2022/06/05 15:10:38;;;;;;;24.70;3.63;;;;;;;28.99;53.41;94242.38;6215849;23;20004;-88
2022/06/05 15:13:37;;;;;;;24.67;3.80;;;;;;;28.84;80.50;94255.13;6209463;23;20058;-89
2022/06/05 15:16:24;;;;;;;25.25;3.53;;;;;;;28.37;67.79;94241.66;6215873;23;20005;-88
2022/06/05 15:18:51;;;;;;;23.38;3.53;;;;;;;28.31;76.85;94252.06;6191414;23;20007;-88
2022/06/05 15:21:22;;;;;;;24.95;3.47;;;;;;;28.74;72.00;94251.25;6215154;23;20313;-89
2022/06/05 15:23:57;;;;;;;25.30;3.80;;;;;;;27.71;91.55;94240.03;6214883;23;20001;-88
2022/06/05 15:26:40;;;;;;;25.02;3.40;;;;;;;29.35;72.28;94252.28;6216034;23;20279;-89
2022/06/05 15:29:05;;;;;;;;;;;;;;;28.74;69.61;94258.56;6216794;23;20016;-88
2022/06/05 15:32:01;;;;;;;28.27;3.78;;;;;;;27.47;72.90;94232.25;6217156;23;20220;-90
2022/06/05 15:34:44;;;;;;;27.45;3.35;;;;;;;28.20;59.62;94238.59;6215544;23;20008;-89
2022/06/05 15:37:37;;;;;;;18.35;2.90;;;;;;;32.98;57.85;94240.31;6215786;23;20001;-90
2022/06/05 15:40:31;;;;;;;16.98;3.35;;;;;;;35.96;46.49;94239.47;6216614;23;20071;-90
2022/06/05 15:43:13;;;;;;;;;;;;;;;37.90;38.75;94241.53;6203581;23;20001;-88
2022/06/05 15:45:38;;;;;;;21.08;2.90;;;;;;;37.16;32.08;94235.66;6191693;23;20372;-89
2022/06/05 15:48:24;;;;;;;18.08;2.83;;;;;;;36.40;33.20;94241.63;6217060;23;20000;-89
2022/06/05 15:51:02;;;;;;;17.70;3.28;;;;;;;38.70;32.95;94243.88;6214375;23;20012;-87
2022/06/05 15:53:46;;;;;;;23.45;2.88;;;;;;;38.93;28.26;94247.28;6190007;23;20099;-88
2022/06/05 15:56:29;;;;;;;20.27;3.17;;;;;;;36.84;30.04;94264.78;6216740;23;20314;-87
2022/06/05 15:59:25;;;;;;;32.55;3.78;;;;;;;35.58;31.13;94254.59;6215972;23;20001;-88
2022/06/05 16:02:12;;;;;;;20.27;3.25;;;;;;;34.21;31.07;94248.69;6202352;23;20000;-89
2022/06/05 16:04:39;;;;;;;20.30;2.90;;;;;;;36.59;28.75;94250.78;6215778;23;20009;-88
2022/06/05 16:07:15;;;;;;;29.75;3.50;;;;;;;37.08;27.42;94270.63;6215299;23;20008;-89
2022/06/05 16:10:01;;;;;;;20.38;3.10;;;;;;;36.34;29.90;94271.41;6216903;23;20431;-88
2022/06/05 16:12:35;;;;;;;30.98;3.10;;;;;;;34.69;30.13;94270.09;6190575;23;20059;-87
2022/06/05 16:15:22;;;;;;;14.85;3.17;;;;;;;34.89;29.58;94283.59;6217067;23;20368;-88
2022/06/05 16:18:01;;;;;;;19.25;3.28;;;;;;;34.82;30.85;94284.53;6216147;23;20004;-89
2022/06/05 16:20:48;;;;;;;29.75;3.13;;;;;;;35.22;29.00;94282.78;6216197;23;20000;-89
2022/06/05 16:23:40;;;;;;;16.20;3.15;;;;;;;34.00;30.39;94290.72;6217323;23;20103;-90
2022/06/05 16:26:42;;;;;;;13.35;2.85;;;;;;;32.27;33.22;94296.06;6216977;23;19996;-89
2022/06/05 16:29:13;;;;;;;13.52;2.58;;;;;;;32.16;35.11;94295.47;6216009;23;20020;-90
2022/06/05 16:31:43;;;;;;;19.77;3.00;;;;;;;32.49;32.97;94303.91;6217103;23;20432;-90
2022/06/05 16:34:32;;;;;;;26.17;3.00;;;;;;;35.61;29.66;94299.25;6215459;23;20035;-91
2022/06/05 16:41:10;;;;;;;;;;;;;;;;;;;;;
2022/06/05 16:43:42;;;;;;;16.85;2.60;;;;;;;32.58;34.22;94333.97;6189245;23;20063;-89
2022/06/05 16:49:47;;;;;;;18.88;3.25;;;;;;;33.41;31.97;94322.91;6215130;23;20004;-91
2022/06/05 16:52:31;;;;;;;15.35;2.60;;;;;;;33.67;31.61;94326.69;6189716;23;20009;-90
2022/06/05 16:55:09;;;;;;;15.68;3.03;;;;;;;33.64;31.94;94305.78;6192695;23;20001;-90
2022/06/05 16:58:07;;;;;;;19.52;2.83;;;;;;;33.52;31.66;94317.28;6217641;23;20012;-90
2022/06/05 17:00:49;;;;;;;14.15;3.42;;;;;;;32.35;33.94;94309.53;6168592;23;20425;-91
2022/06/05 17:03:24;;;;;;;32.85;3.72;;;;;;;31.93;35.49;94305.06;6192047;23;20078;-90
2022/06/05 17:06:25;;;;;;;18.83;2.90;;;;;;;31.08;34.43;94300.19;6192240;23;20027;-90
2022/06/05 17:09:18;;;;;;;22.08;3.00;;;;;;;30.43;37.82;94294.16;6217243;23;20004;-90
2022/06/05 17:11:47;;;;;;;23.15;3.42;;;;;;;28.73;39.63;94292.84;6216497;23;20012;-88
2022/06/05 17:14:37;;;;;;;14.43;2.70;;;;;;;28.12;38.64;94265.84;6217460;23;20005;-88
2022/06/05 17:17:05;;;;;;;21.60;3.25;;;;;;;27.96;39.81;94280.44;6159796;23;20004;-90
2022/06/05 17:19:43;;;;;;;15.57;2.90;;;;;;;27.41;40.18;94270.66;6218742;23;19997;-89
2022/06/05 17:22:45;;;;;;;24.10;3.63;;;;;;;27.22;42.23;94262.50;6216647;23;19997;-90
2022/06/05 17:25:34;;;;;;;22.48;2.95;;;;;;;27.24;41.76;94268.25;6155405;23;20444;-89
2022/06/05 17:28:36;;;;;;;14.65;2.95;;;;;;;26.97;41.56;94273.13;6205960;23;20000;-89
2022/06/05 17:31:20;;;;;;;19.17;3.22;;;;;;;26.75;43.45;94274.88;6216968;23;20322;-89
2022/06/05 17:34:19;;;;;;;19.05;3.45;;;;;;;26.09;45.73;94282.38;6216719;23;20149;-89
2022/06/05 17:37:03;;;;;;;13.70;2.38;;;;;;;26.66;40.47;94275.97;6216882;23;20028;-90
2022/06/05 17:39:46;;;;;;;20.77;3.40;;;;;;;26.05;48.52;94296.94;6218303;23;19996;-89
2022/06/05 17:42:20;;;;;;;14.88;2.83;;;;;;;26.22;44.48;94300.94;6192204;23;20011;-89
2022/06/05 17:45:26;;;;;;;21.70;3.17;;;;;;;26.22;44.76;94307.09;6217266;23;20092;-90
2022/06/05 17:48:07;;;;;;;17.67;3.13;;;;;;;26.04;45.38;94300.72;6196190;23;20088;-90
2022/06/05 17:50:44;;;;;;;27.85;3.40;;;;;;;26.01;46.05;94301.47;6191736;23;20014;-90
2022/06/05 17:53:15;;;;;;;20.52;3.40;;;;;;;25.48;47.36;94309.31;6191581;23;20001;-90
2022/06/05 17:55:43;;;;;;;31.42;3.60;;;;;;;25.69;45.96;94306.13;6216737;23;20422;-91
2022/06/05 17:58:35;;;;;;;31.77;3.60;;;;;;;25.69;45.85;94311.50;6217354;23;19996;-90
2022/06/05 18:01:06;;;;;;;22.25;3.40;;;;;;;25.62;46.81;94318.69;6186259;23;20000;-91
2022/06/05 18:03:37;;;;;;;29.35;3.60;;;;;;;25.49;46.72;94321.59;6191268;23;20004;-91
2022/06/05 18:06:05;;;;;;;25.45;3.55;;;;;;;25.56;45.98;94320.91;6192482;23;20027;-91
2022/06/05 18:08:33;;;;;;;22.60;3.28;;;;;;;25.34;47.54;94319.84;6216712;23;20357;-91
2022/06/05 18:11:10;;;;;;;17.50;3.33;;;;;;;25.33;47.20;94331.72;6191909;23;20009;-90
2022/06/05 18:13:47;;;;;;;25.15;3.78;;;;;;;25.27;46.82;94329.34;6216524;23;20429;-91
2022/06/05 18:16:26;;;;;;;26.05;3.65;;;;;;;25.16;46.85;94344.50;6216830;23;20008;-91
2022/06/05 18:18:52;;;;;;;25.88;3.97;;;;;;;25.05;47.28;94343.56;6215792;23;20003;-90
2022/06/05 18:22:21;;;;;;;;;;;;;;;;;;;;;
2022/06/05 18:24:46;;;;;;;22.85;2.80;;;;;;;24.60;51.25;94349.38;6218063;23;20024;-91
2022/06/05 18:27:24;;;;;;;29.85;3.92;;;;;;;24.79;48.74;94353.94;6217071;23;20404;-90
2022/06/05 18:29:54;;;;;;;39.58;3.35;;;;;;;24.71;48.69;94349.53;6191662;23;20008;-90
2022/06/05 18:32:53;;;;;;;21.42;3.47;;;;;;;24.66;48.89;94353.28;6191931;23;20007;-89
2022/06/05 18:38:15;;;;;;;26.67;4.07;;;;;;;23.89;52.59;94344.28;6206766;23;20070;-90
2022/06/05 18:38:21;;;;;;;26.23;3.55;;;;;;;24.23;48.78;94333.84;6215469;23;20004;-90
2022/06/05 18:41:15;;;;;;;31.60;4.38;;;;;;;23.99;49.48;94346.41;6217479;23;20376;-90
2022/06/05 18:43:41;;;;;;;23.35;3.13;;;;;;;23.98;49.21;94356.31;6216547;23;20001;-91
2022/06/05 18:46:20;;;;;;;30.20;4.55;;;;;;;24.04;48.29;94340.00;6217102;23;20011;-92
2022/06/05 18:48:59;;;;;;;31.17;3.72;;;;;;;24.06;48.29;94338.50;6191971;23;20008;-89
2022/06/05 18:51:31;;;;;;;28.25;4.00;;;;;;;24.06;48.16;94338.50;6216545;23;20005;-88
2022/06/05 18:54:08;;;;;;;25.33;3.40;;;;;;;23.84;49.63;94334.63;6216202;23;20406;-88
2022/06/05 18:57:04;;;;;;;22.98;3.40;;;;;;;24.00;48.44;94339.91;6193275;23;20004;-90
2022/06/05 18:59:33;;;;;;;19.73;3.53;;;;;;;23.67;50.67;94346.53;6191689;23;20007;-90
2022/06/05 19:02:20;;;;;;;22.58;3.55;;;;;;;23.86;48.38;94354.56;6190946;23;20008;-90
2022/06/05 19:05:10;;;;;;;30.35;3.83;;;;;;;23.75;48.74;94366.94;6191101;23;20008;-89
2022/06/05 19:08:23;;;;;;;30.58;4.30;;;;;;;23.73;49.26;94361.19;6194679;23;20012;-88
2022/06/05 19:10:58;;;;;;;40.92;4.20;;;;;;;23.75;49.20;94366.94;6147854;23;20015;-87
2022/06/05 19:13:43;;;;;;;27.20;3.95;;;;;;;23.72;49.29;94373.00;6215593;23;20370;-88
2022/06/05 19:16:23;;;;;;;27.92;4.47;;;;;;;23.70;49.96;94381.38;6216181;23;19997;-87
2022/06/05 19:18:58;;;;;;;22.80;3.55;;;;;;;23.52;50.59;94375.66;6216142;23;20088;-89
2022/06/05 19:21:38;;;;;;;24.17;3.88;;;;;;;23.55;50.53;94372.28;6215973;23;19992;-88
2022/06/05 19:24:46;;;;;;;33.22;3.25;;;;;;;23.42;50.84;94365.53;6215406;23;20027;-88
2022/06/05 19:27:18;;;;;;;23.80;3.63;;;;;;;23.14;52.59;94366.41;6176907;23;20008;-88
2022/06/05 19:29:55;;;;;;;34.83;3.95;;;;;;;23.39;50.64;94358.22;6190990;23;20032;-87
2022/06/05 19:32:24;;;;;;;26.80;4.25;;;;;;;23.55;50.13;94358.13;6189513;23;20004;-86
2022/06/05 19:35:17;;;;;;;29.63;4.72;;;;;;;23.41;51.38;94362.06;6215629;23;20394;-87
2022/06/05 19:38:24;;;;;;;22.63;3.30;;;;;;;23.46;49.37;94358.34;6190460;23;20732;-87
2022/06/05 19:41:23;;;;;;;23.92;3.80;;;;;;;23.63;48.39;94341.13;6196622;23;20238;-86
2022/06/05 19:44:01;;;;;;;28.73;3.67;;;;;;;23.40;49.60;94352.50;6215269;23;20000;-86
2022/06/05 19:46:32;;;;;;;36.35;4.03;;;;;;;23.65;47.89;94349.56;6191149;23;20001;-87
2022/06/05 19:49:33;;;;;;;26.70;3.63;;;;;;;23.76;47.00;94365.81;6191310;23;20032;-87
2022/06/05 19:52:12;;;;;;;16.98;3.33;;;;;;;24.00;45.53;94350.63;6100698;23;20010;-86
2022/06/05 19:54:38;;;;;;;18.70;3.92;;;;;;;23.83;46.10;94357.16;6177168;23;20410;-86
2022/06/05 19:57:05;;;;;;;14.00;2.83;;;;;;;23.71;47.19;94372.22;6215471;23;20003;-88
2022/06/05 19:59:31;;;;;;;19.98;3.35;;;;;;;23.60;46.92;94359.75;6190748;23;20011;-87
2022/06/05 20:02:07;;;;;;;27.73;3.95;;;;;;;23.81;46.12;94365.53;6214852;23;20004;-88
2022/06/05 20:04:47;;;;;;;31.40;3.65;;;;;;;23.71;47.21;94352.75;6215970;23;20004;-87
2022/06/05 20:07:13;;;;;;;29.70;3.58;;;;;;;23.59;48.23;94358.97;6190479;23;20000;-88
2022/06/05 20:09:41;;;;;;;22.88;3.53;;;;;;;23.45;48.61;94332.72;6217074;23;19996;-86
2022/06/05 20:12:23;;;;;;;18.67;3.20;;;;;;;23.43;49.07;94357.13;6215108;23;20004;-88
2022/06/05 20:15:20;;;;;;;32.28;3.78;;;;;;;23.37;49.42;94371.13;6216098;23;20000;-87
2022/06/05 20:17:53;;;;;;;23.85;3.70;;;;;;;23.30;49.85;94361.84;6192883;23;20001;-87
2022/06/05 20:20:44;;;;;;;21.73;3.80;;;;;;;23.19;50.73;94358.13;6215753;23;20008;-87
2022/06/05 20:23:15;;;;;;;28.45;2.83;;;;;;;23.05;51.84;94361.25;6216624;23;20450;-90
2022/06/05 20:25:44;;;;;;;33.80;4.20;;;;;;;23.10;51.25;94360.22;6191052;23;20321;-88
2022/06/05 20:28:21;;;;;;;11.85;2.63;;;;;;;23.22;51.01;94352.06;6217756;23;20477;-87
2022/06/05 20:31:10;;;;;;;25.23;3.17;;;;;;;23.14;51.35;94359.16;6193635;23;20012;-86
2022/06/05 20:33:40;;;;;;;18.95;2.83;;;;;;;23.08;51.73;94351.75;6216984;23;20000;-87
2022/06/05 20:36:15;;;;;;;24.83;3.47;;;;;;;22.88;52.47;94355.16;6193425;23;19996;-86
2022/06/05 20:39:04;;;;;;;18.45;3.30;;;;;;;23.00;52.14;94356.97;6192382;23;20011;-86
2022/06/05 20:41:39;;;;;;;22.02;3.45;;;;;;;22.88;53.00;94349.81;6193724;23;20307;-88
2022/06/05 20:44:30;;;;;;;29.35;4.13;;;;;;;22.85;53.30;94363.09;6192613;23;20003;-86
2022/06/05 20:47:51;;;;;;;28.60;4.13;;;;;;;22.97;53.04;94367.56;6192454;23;20005;-87
2022/06/05 20:50:49;;;;;;;20.63;3.10;;;;;;;22.86;53.28;94373.41;6141953;23;19997;-87
2022/06/05 20:53:24;;;;;;;35.38;4.03;;;;;;;22.91;53.83;94368.94;6216949;23;20484;-87
2022/06/05 20:56:01;;;;;;;27.05;3.13;;;;;;;22.94;53.94;94384.28;6192347;23;20000;-87
2022/06/05 20:58:53;;;;;;;21.88;3.25;;;;;;;22.87;54.58;94376.88;6193081;23;20000;-87
2022/06/05 21:01:19;;;;;;;32.53;3.75;;;;;;;22.69;55.97;94381.78;6217656;23;20004;-88
2022/06/05 21:09:25;;;;;;;23.73;3.40;;;;;;;22.48;58.24;94406.84;6217545;23;20070;-87
2022/06/05 21:17:29;;;;;;;20.65;4.20;;;;;;;22.31;61.49;94414.03;6217663;23;20084;-88
2022/06/05 21:20:09;;;;;;;;;;;;;;;;;;;;;
2022/06/05 21:22:38;;;;;;;16.98;3.53;;;;;;;22.59;60.54;94431.13;6216736;23;20067;-88
2022/06/05 21:25:55;;;;;;;20.35;3.47;;;;;;;22.58;61.34;94426.91;6217301;23;19997;-87
2022/06/05 21:28:27;;;;;;;28.67;3.72;;;;;;;22.63;60.96;94426.66;6126465;23;20006;-87
2022/06/05 21:31:18;;;;;;;27.05;4.22;;;;;;;22.91;60.17;94420.47;6201668;23;20007;-88
2022/06/05 21:33:44;;;;;;;25.20;3.95;;;;;;;22.91;60.80;94425.03;6191980;23;20021;-88
2022/06/05 21:36:20;;;;;;;;;;;;;;;;;;;;;
2022/06/05 21:38:52;;;;;;;28.42;3.55;;;;;;;22.62;63.93;94433.09;6216415;23;20076;-87
2022/06/05 21:41:39;;;;;;;24.63;4.43;;;;;;;22.55;63.85;94433.69;6217118;23;20092;-87
2022/06/05 21:44:15;;;;;;;17.58;3.70;;;;;;;22.76;62.98;94432.72;6216737;23;20000;-87
2022/06/05 21:46:43;;;;;;;25.75;3.80;;;;;;;22.79;63.11;94439.25;6193088;23;20008;-86
2022/06/05 21:49:09;;;;;;;21.60;3.63;;;;;;;22.80;63.53;94446.13;6191875;23;20007;-86
2022/06/05 21:51:36;;;;;;;30.52;3.88;;;;;;;22.80;64.18;94440.78;6216565;23;19993;-87
2022/06/05 21:54:09;;;;;;;17.30;3.38;;;;;;;22.97;62.74;94437.81;6216176;23;20079;-87
2022/06/05 21:56:47;;;;;;;24.40;3.92;;;;;;;22.73;64.91;94433.38;6193740;23;20007;-87
2022/06/05 21:59:12;;;;;;;19.85;3.30;;;;;;;22.72;65.58;94448.63;6192863;23;20004;-87
2022/06/05 22:01:39;;;;;;;22.10;3.67;;;;;;;22.73;65.03;94447.50;6216792;23;20007;-87
2022/06/05 22:04:07;;;;;;;26.73;4.20;;;;;;;22.54;67.53;94447.41;6191523;23;20067;-87
2022/06/05 22:06:43;;;;;;;19.80;3.47;;;;;;;22.71;65.88;94456.97;6192834;23;20001;-86
2022/06/05 22:09:13;;;;;;;29.48;4.13;;;;;;;22.72;65.48;94453.19;6216587;23;20000;-87
2022/06/05 22:11:40;;;;;;;24.48;3.53;;;;;;;22.78;65.79;94453.72;6192353;23;19997;-88
2022/06/05 22:14:17;;;;;;;31.20;3.92;;;;;;;22.55;68.79;94460.41;6191567;23;20457;-89
2022/06/05 22:16:49;;;;;;;23.00;4.20;;;;;;;22.48;68.30;94456.75;6192784;23;20485;-87
2022/06/05 22:19:15;;;;;;;24.63;3.70;;;;;;;22.26;71.72;94458.84;6192339;23;20051;-88
